Time;durP1;ratioP1;P1;durP2;ratioP2;P2;SDS_P1;SDS_P2;PMS_P1;PMS_P2;Temp;Humidity;BMP_temperature;BMP_pressure;BME280_temperature;BME280_humidity;BME280_pressure;Samples;Min_cycle;Max_cycle;Signal;HPM_P1;HPM_P2
2021/01/21 00:02:21;;;;;;;3.60;3.30;;;;;;;;;;5034750;28;20448;-65
2021/01/21 00:04:48;;;;;;;4.03;3.60;;;;;;;;;;5034596;28;20507;-65
2021/01/21 00:07:14;;;;;;;4.10;3.67;;;;;;;;;;5034326;28;20978;-65
2021/01/21 00:09:41;;;;;;;3.73;3.20;;;;;;;;;;5034248;28;20468;-65
2021/01/21 00:12:08;;;;;;;6.20;4.00;;;;;;;;;;5034260;28;20844;-64
2021/01/21 00:14:36;;;;;;;5.23;3.90;;;;;;;;;;5034538;28;20857;-65
2021/01/21 00:17:02;;;;;;;4.13;3.83;;;;;;;;;;5034471;28;20455;-65
2021/01/21 00:19:29;;;;;;;4.20;3.80;;;;;;;;;;5034495;28;20496;-65
2021/01/21 00:21:55;;;;;;;4.43;4.03;;;;;;;;;;5035178;28;20460;-65
2021/01/21 00:24:22;;;;;;;5.13;3.60;;;;;;;;;;5034332;28;20449;-65
2021/01/21 00:26:48;;;;;;;4.33;3.57;;;;;;;;;;5034496;28;20449;-64
2021/01/21 00:29:15;;;;;;;4.40;3.20;;;;;;;;;;5033542;28;20983;-65
2021/01/21 00:31:42;;;;;;;3.47;3.17;;;;;;;;;;5034028;28;20444;-65
2021/01/21 00:34:10;;;;;;;4.57;2.73;;;;;;;;;;5033839;28;20451;-65
2021/01/21 00:36:36;;;;;;;3.53;3.23;;;;;;;;;;5034138;28;20453;-65
2021/01/21 00:39:05;;;;;;;3.53;3.23;;;;;;;;;;5033675;28;20897;-65
2021/01/21 00:41:32;;;;;;;3.57;3.23;;;;;;;;;;5033535;28;20873;-65
2021/01/21 00:43:59;;;;;;;4.03;3.63;;;;;;;;;;5033450;28;20456;-65
2021/01/21 00:46:25;;;;;;;3.67;3.37;;;;;;;;;;5033483;28;20457;-64
2021/01/21 00:48:53;;;;;;;3.40;3.10;;;;;;;;;;5033628;28;20449;-65
2021/01/21 00:51:20;;;;;;;5.03;3.47;;;;;;;;;;5033795;28;20453;-65
2021/01/21 00:53:46;;;;;;;4.20;3.23;;;;;;;;;;5033797;28;20445;-65
2021/01/21 00:56:13;;;;;;;3.70;3.40;;;;;;;;;;5033001;28;20793;-65
2021/01/21 00:58:40;;;;;;;3.50;3.20;;;;;;;;;;5033061;28;20851;-65
2021/01/21 01:01:06;;;;;;;4.43;3.90;;;;;;;;;;5033419;28;20547;-65
2021/01/21 01:03:33;;;;;;;3.20;3.00;;;;;;;;;;5033535;28;20453;-66
2021/01/21 01:06:04;;;;;;;4.60;3.63;;;;;;;;;;5033580;28;20864;-65
2021/01/21 01:08:31;;;;;;;4.03;3.10;;;;;;;;;;5033249;28;20437;-66
2021/01/21 01:10:58;;;;;;;5.50;3.23;;;;;;;;;;5033426;28;20480;-65
2021/01/21 01:13:24;;;;;;;3.40;3.10;;;;;;;;;;5033202;28;20951;-65
2021/01/21 01:15:51;;;;;;;4.43;3.57;;;;;;;;;;5033283;28;20456;-66
2021/01/21 01:18:18;;;;;;;3.70;3.40;;;;;;;;;;5032687;28;20479;-64
2021/01/21 01:20:45;;;;;;;3.60;3.30;;;;;;;;;;5033162;28;20472;-64
2021/01/21 01:23:12;;;;;;;3.73;3.13;;;;;;;;;;5032810;28;20445;-65
2021/01/21 01:25:39;;;;;;;3.77;3.47;;;;;;;;;;5033121;28;20763;-64
2021/01/21 01:28:06;;;;;;;3.53;3.10;;;;;;;;;;5032851;28;20449;-64
2021/01/21 01:30:32;;;;;;;4.30;3.20;;;;;;;;;;5032948;28;20460;-64
2021/01/21 01:32:59;;;;;;;3.30;3.00;;;;;;;;;;5032721;28;20882;-64
2021/01/21 01:35:25;;;;;;;4.00;3.60;;;;;;;;;;5032796;28;20453;-64
2021/01/21 01:37:52;;;;;;;5.37;3.50;;;;;;;;;;5032458;28;20456;-64
2021/01/21 01:40:19;;;;;;;4.03;3.63;;;;;;;;;;5032678;28;20495;-64
2021/01/21 01:42:46;;;;;;;4.20;3.30;;;;;;;;;;5032498;28;20936;-65
2021/01/21 01:45:13;;;;;;;3.93;3.37;;;;;;;;;;5032856;28;20454;-64
2021/01/21 01:47:41;;;;;;;3.60;2.90;;;;;;;;;;5032557;28;20448;-66
2021/01/21 01:50:08;;;;;;;7.33;3.43;;;;;;;;;;5032697;28;20471;-65
2021/01/21 01:52:41;;;;;;;3.70;3.40;;;;;;;;;;5032495;28;20449;-64
2021/01/21 01:55:08;;;;;;;5.27;3.20;;;;;;;;;;5032470;28;20433;-64
2021/01/21 01:57:35;;;;;;;5.20;3.57;;;;;;;;;;5032260;28;20948;-64
2021/01/21 02:00:02;;;;;;;3.63;3.33;;;;;;;;;;5031988;28;20500;-65
2021/01/21 02:02:29;;;;;;;4.50;3.30;;;;;;;;;;5032196;28;20448;-64
2021/01/21 02:04:55;;;;;;;3.90;3.60;;;;;;;;;;5032562;28;20451;-65
2021/01/21 02:07:22;;;;;;;4.20;3.80;;;;;;;;;;5031363;28;20460;-64
2021/01/21 02:09:49;;;;;;;3.67;3.37;;;;;;;;;;5032708;28;20465;-65
2021/01/21 02:12:21;;;;;;;4.20;3.80;;;;;;;;;;5032649;28;20452;-64
2021/01/21 02:14:52;;;;;;;4.20;3.67;;;;;;;;;;5032604;28;20440;-64
2021/01/21 02:17:21;;;;;;;4.10;3.57;;;;;;;;;;5032773;28;20445;-64
2021/01/21 02:20:02;;;;;;;4.37;3.50;;;;;;;;;;5032470;28;20492;-65
2021/01/21 02:22:47;;;;;;;3.73;3.43;;;;;;;;;;5032833;28;20486;-66
2021/01/21 02:25:15;;;;;;;4.57;3.80;;;;;;;;;;5032457;28;20955;-65
2021/01/21 02:27:49;;;;;;;4.00;3.60;;;;;;;;;;5032722;28;20455;-65
2021/01/21 02:30:24;;;;;;;3.70;3.30;;;;;;;;;;5032640;28;20476;-64
2021/01/21 02:32:55;;;;;;;4.00;3.53;;;;;;;;;;5032729;28;20432;-65
2021/01/21 02:35:23;;;;;;;3.80;3.40;;;;;;;;;;5032430;28;20429;-65
2021/01/21 02:37:53;;;;;;;4.03;3.30;;;;;;;;;;5032895;28;20460;-64
2021/01/21 02:40:21;;;;;;;3.90;3.57;;;;;;;;;;5031397;28;20998;-64
2021/01/21 02:42:48;;;;;;;5.60;3.90;;;;;;;;;;5032037;28;20906;-64
2021/01/21 02:45:15;;;;;;;5.70;3.60;;;;;;;;;;5031822;28;20456;-65
2021/01/21 02:47:42;;;;;;;3.83;3.53;;;;;;;;;;5031409;28;20981;-65
2021/01/21 02:50:09;;;;;;;4.23;3.40;;;;;;;;;;5031592;28;21048;-65
2021/01/21 02:52:39;;;;;;;3.60;3.30;;;;;;;;;;5031722;28;20464;-65
2021/01/21 02:55:10;;;;;;;5.73;3.73;;;;;;;;;;5031616;28;20940;-65
2021/01/21 02:57:39;;;;;;;4.10;3.70;;;;;;;;;;5031905;28;20437;-65
2021/01/21 03:00:07;;;;;;;3.70;3.40;;;;;;;;;;5031357;28;20492;-65
2021/01/21 03:02:36;;;;;;;3.60;3.30;;;;;;;;;;5032077;28;20456;-65
2021/01/21 03:05:04;;;;;;;3.77;3.37;;;;;;;;;;5031522;28;20449;-65
2021/01/21 03:07:31;;;;;;;3.80;3.37;;;;;;;;;;5031321;28;20452;-65
2021/01/21 03:09:58;;;;;;;3.87;3.57;;;;;;;;;;5031341;28;20464;-64
2021/01/21 03:12:26;;;;;;;7.60;3.90;;;;;;;;;;5031175;28;20445;-65
2021/01/21 03:14:53;;;;;;;5.10;3.00;;;;;;;;;;5031171;28;20453;-65
2021/01/21 03:17:20;;;;;;;3.90;3.30;;;;;;;;;;5031083;28;20814;-66
2021/01/21 03:19:47;;;;;;;3.10;2.80;;;;;;;;;;5033938;28;20542;-65
2021/01/21 03:22:14;;;;;;;3.43;3.17;;;;;;;;;;5035131;28;20453;-65
2021/01/21 03:24:41;;;;;;;4.17;3.30;;;;;;;;;;5035371;28;20456;-65
2021/01/21 03:27:08;;;;;;;4.60;2.93;;;;;;;;;;5035090;28;20506;-65
2021/01/21 03:29:35;;;;;;;5.00;3.60;;;;;;;;;;5034489;28;20521;-65
2021/01/21 03:32:01;;;;;;;4.23;3.50;;;;;;;;;;5034823;28;20448;-65
2021/01/21 03:34:28;;;;;;;4.73;3.13;;;;;;;;;;5035032;28;21021;-65
2021/01/21 03:36:55;;;;;;;3.70;2.93;;;;;;;;;;5035195;28;20823;-65
2021/01/21 03:39:21;;;;;;;5.80;3.43;;;;;;;;;;5034683;28;20492;-64
2021/01/21 03:41:49;;;;;;;3.83;3.10;;;;;;;;;;5034714;28;20955;-64
2021/01/21 03:44:17;;;;;;;5.00;3.37;;;;;;;;;;5034863;28;20514;-64
2021/01/21 03:46:43;;;;;;;4.73;3.40;;;;;;;;;;5034515;28;20448;-64
2021/01/21 03:49:10;;;;;;;3.10;2.80;;;;;;;;;;5034722;28;20473;-64
2021/01/21 03:51:37;;;;;;;3.00;2.70;;;;;;;;;;5034540;28;20472;-66
2021/01/21 03:54:03;;;;;;;3.93;2.90;;;;;;;;;;5034804;28;20448;-65
2021/01/21 03:56:30;;;;;;;4.37;3.17;;;;;;;;;;5034400;28;20506;-65
2021/01/21 03:58:57;;;;;;;3.33;3.03;;;;;;;;;;5033786;28;20488;-67
2021/01/21 04:01:24;;;;;;;4.17;3.27;;;;;;;;;;5034469;28;20789;-65
2021/01/21 04:03:51;;;;;;;3.30;3.00;;;;;;;;;;5034272;28;20498;-67
2021/01/21 04:06:18;;;;;;;5.00;3.10;;;;;;;;;;5034398;28;20854;-64
2021/01/21 04:08:44;;;;;;;3.43;3.13;;;;;;;;;;5033905;28;20494;-64
2021/01/21 04:11:11;;;;;;;3.90;3.27;;;;;;;;;;5034416;28;21148;-64
2021/01/21 04:13:37;;;;;;;3.40;2.90;;;;;;;;;;5034381;28;20456;-65
2021/01/21 04:16:04;;;;;;;4.00;3.70;;;;;;;;;;5034178;28;20448;-64
2021/01/21 04:18:32;;;;;;;3.53;2.90;;;;;;;;;;5033966;28;20453;-64
2021/01/21 04:20:58;;;;;;;3.60;3.30;;;;;;;;;;5034341;28;20472;-64
2021/01/21 04:23:25;;;;;;;3.50;3.20;;;;;;;;;;5034027;28;20944;-64
2021/01/21 04:25:51;;;;;;;3.50;3.10;;;;;;;;;;5034258;28;20447;-65
2021/01/21 04:28:18;;;;;;;3.93;3.40;;;;;;;;;;5033996;28;20453;-65
2021/01/21 04:30:45;;;;;;;2.90;2.70;;;;;;;;;;5033263;28;20471;-64
2021/01/21 04:33:11;;;;;;;3.53;3.23;;;;;;;;;;5034238;28;20444;-65
2021/01/21 04:35:39;;;;;;;4.80;3.27;;;;;;;;;;5034128;28;20455;-65
2021/01/21 04:38:05;;;;;;;5.13;3.30;;;;;;;;;;5033767;28;20448;-64
2021/01/21 04:40:32;;;;;;;3.80;3.03;;;;;;;;;;5033716;28;21045;-65
2021/01/21 04:42:59;;;;;;;3.50;3.20;;;;;;;;;;5033710;28;20460;-64
2021/01/21 04:45:25;;;;;;;4.37;3.13;;;;;;;;;;5033792;28;20453;-64
2021/01/21 04:47:52;;;;;;;3.57;3.27;;;;;;;;;;5033410;28;20800;-65
2021/01/21 04:50:19;;;;;;;4.07;3.67;;;;;;;;;;5034012;28;20465;-64
2021/01/21 04:52:47;;;;;;;4.43;3.23;;;;;;;;;;5033601;28;20526;-64
2021/01/21 04:55:17;;;;;;;3.53;3.30;;;;;;;;;;5033545;28;20449;-64
2021/01/21 04:57:44;;;;;;;3.20;2.90;;;;;;;;;;5033439;28;20448;-64
2021/01/21 05:02:40;;;;;;;4.30;3.50;;;;;;;;;;5073716;23;20491;-65
2021/01/21 05:05:07;;;;;;;3.00;2.80;;;;;;;;;;5053383;28;20447;-66
2021/01/21 05:07:34;;;;;;;4.60;3.60;;;;;;;;;;5053718;28;20954;-65
2021/01/21 05:10:01;;;;;;;3.30;2.73;;;;;;;;;;5052853;28;20713;-65
2021/01/21 05:12:28;;;;;;;3.80;3.50;;;;;;;;;;5052575;28;20476;-65
2021/01/21 05:14:54;;;;;;;3.93;3.10;;;;;;;;;;5052496;28;20448;-67
2021/01/21 05:17:21;;;;;;;3.40;3.10;;;;;;;;;;5053321;28;20478;-66
2021/01/21 05:19:51;;;;;;;4.77;3.40;;;;;;;;;;5053169;28;20487;-65
2021/01/21 05:22:18;;;;;;;3.57;3.27;;;;;;;;;;5053023;28;20471;-65
2021/01/21 05:24:45;;;;;;;3.27;2.97;;;;;;;;;;5053003;28;20455;-65
2021/01/21 05:27:13;;;;;;;4.97;3.67;;;;;;;;;;5052914;28;20487;-64
2021/01/21 05:29:42;;;;;;;3.67;3.10;;;;;;;;;;5052934;28;20447;-65
2021/01/21 05:32:09;;;;;;;3.93;3.40;;;;;;;;;;5052379;28;20529;-66
2021/01/21 05:34:36;;;;;;;3.57;3.27;;;;;;;;;;5052539;28;20451;-65
2021/01/21 05:37:03;;;;;;;4.23;3.50;;;;;;;;;;5052332;28;20455;-64
2021/01/21 05:39:36;;;;;;;4.03;2.80;;;;;;;;;;5052511;28;20512;-65
2021/01/21 05:42:03;;;;;;;3.57;3.00;;;;;;;;;;5052376;28;20468;-65
2021/01/21 05:44:31;;;;;;;3.20;3.00;;;;;;;;;;5052619;28;20462;-65
2021/01/21 05:46:58;;;;;;;3.20;2.90;;;;;;;;;;5052889;28;20452;-65
2021/01/21 05:49:27;;;;;;;4.43;3.10;;;;;;;;;;5053902;28;20939;-65
2021/01/21 05:51:55;;;;;;;3.30;3.00;;;;;;;;;;5058246;28;20507;-66
2021/01/21 05:54:21;;;;;;;3.07;2.77;;;;;;;;;;5060212;28;20448;-65
2021/01/21 05:56:49;;;;;;;3.40;3.10;;;;;;;;;;5059460;28;20450;-66
2021/01/21 05:59:15;;;;;;;3.63;2.47;;;;;;;;;;5052445;28;20483;-65
2021/01/21 06:01:43;;;;;;;2.90;2.60;;;;;;;;;;5052199;28;20480;-65
2021/01/21 06:04:10;;;;;;;2.80;2.57;;;;;;;;;;5052164;28;20451;-65
2021/01/21 06:06:39;;;;;;;3.57;3.27;;;;;;;;;;5052568;28;20801;-66
2021/01/21 06:09:06;;;;;;;2.93;2.63;;;;;;;;;;5051465;28;20947;-68
2021/01/21 06:11:33;;;;;;;3.60;2.87;;;;;;;;;;5052139;28;20463;-65
2021/01/21 06:14:01;;;;;;;3.37;3.07;;;;;;;;;;5051890;28;20460;-64
2021/01/21 06:16:28;;;;;;;4.20;2.90;;;;;;;;;;5052302;28;20452;-64
2021/01/21 06:18:55;;;;;;;3.00;2.60;;;;;;;;;;5051315;28;20454;-65
2021/01/21 06:21:24;;;;;;;3.10;2.90;;;;;;;;;;5051998;28;20471;-65
2021/01/21 06:23:53;;;;;;;3.03;2.67;;;;;;;;;;5051862;28;20452;-65
2021/01/21 06:26:21;;;;;;;2.80;2.60;;;;;;;;;;5051693;28;20452;-63
2021/01/21 06:28:48;;;;;;;3.30;2.70;;;;;;;;;;5051158;28;20505;-64
2021/01/21 06:31:17;;;;;;;5.43;2.53;;;;;;;;;;5051612;28;20494;-64
2021/01/21 06:33:43;;;;;;;2.47;2.27;;;;;;;;;;5051659;28;20455;-64
2021/01/21 06:36:14;;;;;;;3.40;2.60;;;;;;;;;;5051783;28;20452;-64
2021/01/21 06:38:41;;;;;;;3.03;2.60;;;;;;;;;;5051355;28;20458;-64
2021/01/21 06:41:09;;;;;;;3.87;2.70;;;;;;;;;;5051417;28;20474;-64
2021/01/21 06:43:36;;;;;;;3.43;2.83;;;;;;;;;;5051524;28;20451;-65
2021/01/21 06:46:03;;;;;;;2.93;2.60;;;;;;;;;;5051309;28;20455;-65
2021/01/21 06:48:30;;;;;;;4.27;2.70;;;;;;;;;;5051510;28;20454;-65
2021/01/21 06:50:57;;;;;;;2.80;2.50;;;;;;;;;;5051448;28;21073;-65
2021/01/21 06:53:26;;;;;;;2.60;2.40;;;;;;;;;;5052907;28;20817;-64
2021/01/21 06:55:53;;;;;;;3.27;2.83;;;;;;;;;;5055409;28;20513;-67
2021/01/21 06:58:34;;;;;;;2.97;2.60;;;;;;;;;;5055303;28;20533;-65
2021/01/21 07:01:01;;;;;;;5.03;2.63;;;;;;;;;;5054919;28;20511;-66
2021/01/21 07:03:28;;;;;;;3.27;2.70;;;;;;;;;;5055501;28;20455;-64
2021/01/21 07:05:59;;;;;;;2.43;2.27;;;;;;;;;;5055499;28;20455;-65
2021/01/21 07:08:26;;;;;;;6.40;2.93;;;;;;;;;;5053558;28;20516;-66
2021/01/21 07:10:57;;;;;;;5.23;1.90;;;;;;;;;;5062332;28;20545;-64
2021/01/21 07:13:25;;;;;;;5.83;1.70;;;;;;;;;;5072438;28;20447;-64
2021/01/21 07:15:52;;;;;;;4.40;1.80;;;;;;;;;;5051593;28;20460;-64
2021/01/21 07:18:19;;;;;;;1.97;1.47;;;;;;;;;;5054580;28;20448;-64
2021/01/21 07:21:05;;;;;;;3.53;1.80;;;;;;;;;;5055747;28;20509;-63
2021/01/21 07:23:36;;;;;;;2.80;1.83;;;;;;;;;;5055133;28;20547;-64
2021/01/21 07:26:20;;;;;;;1.87;1.37;;;;;;;;;;5055790;28;20467;-63
2021/01/21 07:29:06;;;;;;;2.33;1.70;;;;;;;;;;5054811;28;20491;-64
2021/01/21 07:31:48;;;;;;;2.13;1.63;;;;;;;;;;5055941;28;20463;-63
2021/01/21 07:34:24;;;;;;;2.70;1.60;;;;;;;;;;5054025;28;20467;-64
2021/01/21 07:37:05;;;;;;;4.07;1.60;;;;;;;;;;5055900;28;20818;-63
2021/01/21 07:42:44;;;;;;;2.67;1.60;;;;;;;;;;5126476;27;20539;-64
2021/01/21 07:45:14;;;;;;;2.40;1.30;;;;;;;;;;5107007;28;20453;-64
2021/01/21 07:47:41;;;;;;;1.70;1.40;;;;;;;;;;5108091;28;20472;-65
2021/01/21 07:50:29;;;;;;;2.00;1.40;;;;;;;;;;5109733;28;20752;-65
2021/01/21 07:52:57;;;;;;;2.20;1.40;;;;;;;;;;5110087;28;20468;-65
2021/01/21 07:55:27;;;;;;;2.00;1.67;;;;;;;;;;5108606;28;20829;-65
2021/01/21 07:57:54;;;;;;;2.13;1.30;;;;;;;;;;5111596;28;20449;-65
2021/01/21 08:00:21;;;;;;;2.17;1.30;;;;;;;;;;5111612;28;20913;-65
2021/01/21 08:02:49;;;;;;;3.50;1.30;;;;;;;;;;5108468;28;20832;-65
2021/01/21 08:05:16;;;;;;;1.80;1.00;;;;;;;;;;5109726;28;20468;-63
2021/01/21 08:07:47;;;;;;;2.03;1.30;;;;;;;;;;5097381;28;20470;-67
2021/01/21 08:10:14;;;;;;;1.60;1.40;;;;;;;;;;5105030;28;20990;-66
2021/01/21 08:12:41;;;;;;;1.97;1.87;;;;;;;;;;5109251;27;20449;-67
2021/01/21 08:15:17;;;;;;;2.00;1.57;;;;;;;;;;5117684;28;20449;-66
2021/01/21 08:17:43;;;;;;;2.03;1.60;;;;;;;;;;5111511;27;20457;-66
2021/01/21 08:20:10;;;;;;;1.67;1.57;;;;;;;;;;5109775;28;20495;-64
2021/01/21 08:22:51;;;;;;;1.77;1.67;;;;;;;;;;5109513;28;20469;-66
2021/01/21 08:25:18;;;;;;;2.07;1.60;;;;;;;;;;5109470;28;20436;-66
2021/01/21 08:27:45;;;;;;;4.03;1.80;;;;;;;;;;5120998;28;20482;-66
2021/01/21 08:30:20;;;;;;;5.17;2.20;;;;;;;;;;5130164;27;20523;-66
2021/01/21 08:32:49;;;;;;;3.73;1.83;;;;;;;;;;5113185;27;20449;-66
2021/01/21 08:35:18;;;;;;;2.33;2.13;;;;;;;;;;5109512;28;20542;-66
2021/01/21 08:37:44;;;;;;;3.20;2.50;;;;;;;;;;5109209;28;20800;-66
2021/01/21 08:40:12;;;;;;;3.10;1.73;;;;;;;;;;5109041;28;20449;-67
2021/01/21 08:42:39;;;;;;;2.80;2.03;;;;;;;;;;5108363;28;20488;-65
2021/01/21 08:45:06;;;;;;;4.00;2.30;;;;;;;;;;5109446;28;20449;-67
2021/01/21 08:47:46;;;;;;;2.07;1.90;;;;;;;;;;5109230;28;20449;-66
2021/01/21 08:50:14;;;;;;;1.90;1.80;;;;;;;;;;5109844;28;20475;-66
2021/01/21 08:52:56;;;;;;;5.20;2.30;;;;;;;;;;5101428;28;20843;-67
2021/01/21 08:55:23;;;;;;;3.90;2.30;;;;;;;;;;5095663;28;20442;-67
2021/01/21 08:58:01;;;;;;;2.50;2.30;;;;;;;;;;5095475;28;20456;-67
2021/01/21 09:00:29;;;;;;;2.47;2.27;;;;;;;;;;5094703;28;20473;-67
2021/01/21 09:02:56;;;;;;;4.83;2.30;;;;;;;;;;5095694;28;20445;-67
2021/01/21 09:05:23;;;;;;;2.77;2.00;;;;;;;;;;5107292;27;20944;-67
2021/01/21 09:07:50;;;;;;;2.30;2.10;;;;;;;;;;5095980;28;20454;-67
2021/01/21 09:10:17;;;;;;;2.40;2.20;;;;;;;;;;5095189;28;20469;-67
2021/01/21 09:12:44;;;;;;;3.20;2.40;;;;;;;;;;5094515;28;20469;-68
2021/01/21 09:15:12;;;;;;;3.13;2.37;;;;;;;;;;5095071;28;20472;-67
2021/01/21 09:17:39;;;;;;;3.50;2.47;;;;;;;;;;5093179;28;20466;-67
2021/01/21 09:20:19;;;;;;;3.07;2.33;;;;;;;;;;5094716;28;20446;-68
2021/01/21 09:22:48;;;;;;;4.27;2.47;;;;;;;;;;5094013;28;21255;-68
2021/01/21 09:25:16;;;;;;;3.90;2.57;;;;;;;;;;5092299;28;20860;-68
2021/01/21 09:27:52;;;;;;;2.67;2.20;;;;;;;;;;5095055;28;20438;-68
2021/01/21 09:30:18;;;;;;;2.80;2.30;;;;;;;;;;5093691;28;20476;-68
2021/01/21 09:32:45;;;;;;;2.63;2.43;;;;;;;;;;5094893;28;20462;-68
2021/01/21 09:35:13;;;;;;;2.50;2.30;;;;;;;;;;5095011;28;20823;-68
2021/01/21 09:37:42;;;;;;;4.47;2.30;;;;;;;;;;5092848;28;20458;-67
2021/01/21 09:40:09;;;;;;;3.00;2.40;;;;;;;;;;5092240;28;20462;-68
2021/01/21 09:42:36;;;;;;;4.70;2.70;;;;;;;;;;5094005;28;20895;-68
2021/01/21 09:45:03;;;;;;;3.40;2.50;;;;;;;;;;5084557;28;20462;-64
2021/01/21 09:47:29;;;;;;;8.47;4.00;;;;;;;;;;5080492;28;20843;-64
2021/01/21 09:49:56;;;;;;;14.23;3.90;;;;;;;;;;5096453;28;20442;-62
2021/01/21 09:52:22;;;;;;;10.63;3.37;;;;;;;;;;5094530;28;20838;-69
2021/01/21 09:54:50;;;;;;;10.03;2.93;;;;;;;;;;5095005;28;20470;-67
2021/01/21 09:57:17;;;;;;;11.83;2.97;;;;;;;;;;5091602;28;20474;-67
2021/01/21 09:59:43;;;;;;;5.73;2.60;;;;;;;;;;5093864;28;20507;-67
2021/01/21 10:02:10;;;;;;;8.20;2.90;;;;;;;;;;5101185;28;20503;-67
2021/01/21 10:04:38;;;;;;;2.50;2.00;;;;;;;;;;5120810;27;20514;-71
2021/01/21 10:07:06;;;;;;;5.40;2.90;;;;;;;;;;5116436;28;20481;-68
2021/01/21 10:09:32;;;;;;;5.30;2.70;;;;;;;;;;5098775;28;20445;-68
2021/01/21 10:12:00;;;;;;;3.70;2.60;;;;;;;;;;5095032;28;20452;-68
2021/01/21 10:14:27;;;;;;;7.00;3.00;;;;;;;;;;5106882;28;20454;-68
2021/01/21 10:16:54;;;;;;;3.57;2.93;;;;;;;;;;5105527;28;20985;-67
2021/01/21 10:19:20;;;;;;;6.20;3.03;;;;;;;;;;5106094;28;20446;-64
2021/01/21 10:21:47;;;;;;;3.00;2.50;;;;;;;;;;5106076;28;20496;-67
2021/01/21 10:24:14;;;;;;;3.10;2.80;;;;;;;;;;5103959;28;20501;-67
2021/01/21 10:26:40;;;;;;;2.43;2.23;;;;;;;;;;5105361;28;20953;-67
2021/01/21 10:29:08;;;;;;;2.30;2.10;;;;;;;;;;5106873;28;20483;-67
2021/01/21 10:31:35;;;;;;;4.43;2.33;;;;;;;;;;5104180;28;20480;-68
2021/01/21 10:34:02;;;;;;;3.53;2.33;;;;;;;;;;5103524;28;20929;-66
2021/01/21 10:36:28;;;;;;;2.70;2.13;;;;;;;;;;5106319;28;20487;-67
2021/01/21 10:38:55;;;;;;;4.00;2.20;;;;;;;;;;5106801;28;20438;-68
2021/01/21 10:41:21;;;;;;;2.13;1.93;;;;;;;;;;5104855;28;20485;-69
2021/01/21 10:43:48;;;;;;;3.77;2.30;;;;;;;;;;5094521;28;20520;-69
2021/01/21 10:46:16;;;;;;;2.50;1.90;;;;;;;;;;5091102;28;20466;-67
2021/01/21 10:48:43;;;;;;;2.30;2.10;;;;;;;;;;5091928;28;20471;-68
2021/01/21 10:51:09;;;;;;;3.07;2.20;;;;;;;;;;5093129;28;20458;-68
2021/01/21 10:53:36;;;;;;;2.53;2.17;;;;;;;;;;5092684;28;20462;-68
2021/01/21 10:56:03;;;;;;;2.87;2.30;;;;;;;;;;5092933;28;20442;-69
2021/01/21 10:58:29;;;;;;;4.80;2.07;;;;;;;;;;5091756;28;20976;-69
2021/01/21 11:00:56;;;;;;;3.67;2.10;;;;;;;;;;5091399;28;20478;-68
2021/01/21 11:03:23;;;;;;;2.53;2.07;;;;;;;;;;5073643;22;20499;-70
2021/01/21 11:05:50;;;;;;;2.63;2.43;;;;;;;;;;5049908;28;20463;-71
2021/01/21 11:08:17;;;;;;;4.23;2.20;;;;;;;;;;5051115;28;20452;-70
2021/01/21 11:10:44;;;;;;;3.30;1.87;;;;;;;;;;5050754;28;20498;-70
2021/01/21 11:13:17;;;;;;;3.23;2.10;;;;;;;;;;5064605;28;20479;-69
2021/01/21 11:15:43;;;;;;;4.87;2.43;;;;;;;;;;5068980;28;21030;-70
2021/01/21 11:18:10;;;;;;;2.20;2.00;;;;;;;;;;5062793;28;20443;-70
2021/01/21 11:20:38;;;;;;;2.70;2.00;;;;;;;;;;5068032;28;21020;-70
2021/01/21 11:23:04;;;;;;;2.77;2.10;;;;;;;;;;5067607;28;20466;-71
2021/01/21 11:25:31;;;;;;;3.23;2.00;;;;;;;;;;5067446;28;20973;-70
2021/01/21 11:27:57;;;;;;;3.00;2.00;;;;;;;;;;5065633;28;20888;-70
2021/01/21 11:30:25;;;;;;;4.73;2.50;;;;;;;;;;5065653;28;20497;-70
2021/01/21 11:32:51;;;;;;;3.20;2.30;;;;;;;;;;5066840;28;20552;-70
2021/01/21 11:35:18;;;;;;;3.07;2.33;;;;;;;;;;5051191;28;20447;-67
2021/01/21 11:37:45;;;;;;;3.97;2.20;;;;;;;;;;5063750;28;20481;-67
2021/01/21 11:40:12;;;;;;;2.20;2.00;;;;;;;;;;5051384;28;20473;-68
2021/01/21 11:42:39;;;;;;;5.20;2.40;;;;;;;;;;5064290;28;20916;-69
2021/01/21 11:45:06;;;;;;;2.57;1.97;;;;;;;;;;5057271;28;20459;-69
2021/01/21 11:47:33;;;;;;;3.40;2.33;;;;;;;;;;5067025;28;20463;-66
2021/01/21 11:50:00;;;;;;;2.90;2.33;;;;;;;;;;5067162;28;20555;-68
2021/01/21 11:52:27;;;;;;;3.27;1.97;;;;;;;;;;5068635;28;20580;-69
2021/01/21 11:54:55;;;;;;;2.67;2.07;;;;;;;;;;5057866;28;20474;-68
2021/01/21 11:57:21;;;;;;;2.90;2.17;;;;;;;;;;5068314;28;20482;-69
2021/01/21 11:59:48;;;;;;;2.40;1.83;;;;;;;;;;5069033;28;20443;-69
2021/01/21 12:02:15;;;;;;;4.80;2.50;;;;;;;;;;5069321;28;20895;-69
2021/01/21 12:04:41;;;;;;;2.50;1.80;;;;;;;;;;5060218;28;20447;-69
2021/01/21 12:07:08;;;;;;;3.50;2.10;;;;;;;;;;5068897;28;20462;-68
2021/01/21 12:09:34;;;;;;;3.30;1.70;;;;;;;;;;5067417;28;20463;-69
2021/01/21 12:12:02;;;;;;;2.90;1.83;;;;;;;;;;5066214;28;20868;-69
2021/01/21 12:14:30;;;;;;;3.93;2.00;;;;;;;;;;5070983;28;20447;-69
2021/01/21 12:16:57;;;;;;;3.00;1.70;;;;;;;;;;5066438;28;20516;-68
2021/01/21 12:19:23;;;;;;;6.60;2.30;;;;;;;;;;5067361;28;20467;-69
2021/01/21 12:21:50;;;;;;;4.87;2.70;;;;;;;;;;5069344;28;20463;-69
2021/01/21 12:24:16;;;;;;;3.80;2.00;;;;;;;;;;5070268;28;20960;-69
2021/01/21 12:26:43;;;;;;;2.87;1.80;;;;;;;;;;5067935;28;20463;-69
2021/01/21 12:29:10;;;;;;;3.27;1.60;;;;;;;;;;5073417;28;20946;-69
2021/01/21 12:31:37;;;;;;;2.60;1.67;;;;;;;;;;5054388;28;21107;-69
2021/01/21 12:34:04;;;;;;;2.67;1.57;;;;;;;;;;5060802;28;20469;-69
2021/01/21 12:36:32;;;;;;;2.70;2.10;;;;;;;;;;5073169;28;20466;-69
2021/01/21 12:38:59;;;;;;;3.97;2.03;;;;;;;;;;5074140;28;21083;-69
2021/01/21 12:41:25;;;;;;;4.83;2.50;;;;;;;;;;5068337;28;20470;-69
2021/01/21 12:43:52;;;;;;;2.10;1.80;;;;;;;;;;5065959;28;20483;-69
2021/01/21 12:46:20;;;;;;;2.80;1.77;;;;;;;;;;5061461;28;20467;-69
2021/01/21 12:48:47;;;;;;;2.37;1.90;;;;;;;;;;5072480;28;20443;-69
2021/01/21 12:51:13;;;;;;;1.83;1.57;;;;;;;;;;5072878;28;20498;-70
2021/01/21 12:53:40;;;;;;;4.20;1.80;;;;;;;;;;5060325;28;20483;-69
2021/01/21 12:56:06;;;;;;;4.70;2.30;;;;;;;;;;5065470;28;20516;-69
2021/01/21 12:58:33;;;;;;;2.10;1.60;;;;;;;;;;5074125;28;20465;-69
2021/01/21 13:01:00;;;;;;;3.47;1.83;;;;;;;;;;5069511;28;20989;-69
2021/01/21 13:03:27;;;;;;;4.53;1.73;;;;;;;;;;5074130;28;20471;-69
2021/01/21 13:05:54;;;;;;;4.67;1.83;;;;;;;;;;5071586;28;20459;-69
2021/01/21 13:08:20;;;;;;;5.10;2.37;;;;;;;;;;5073839;28;20458;-69
2021/01/21 13:10:47;;;;;;;3.20;2.20;;;;;;;;;;5072555;28;20463;-69
2021/01/21 13:13:14;;;;;;;6.70;2.53;;;;;;;;;;5072561;28;20491;-69
2021/01/21 13:15:40;;;;;;;2.97;2.40;;;;;;;;;;5070423;28;20470;-69
2021/01/21 13:18:07;;;;;;;3.47;2.50;;;;;;;;;;5070885;28;21280;-69
2021/01/21 13:20:37;;;;;;;5.10;2.30;;;;;;;;;;5073099;28;20450;-69
2021/01/21 13:23:06;;;;;;;2.90;2.20;;;;;;;;;;5073847;28;20471;-69
2021/01/21 13:25:33;;;;;;;4.83;2.60;;;;;;;;;;5073372;28;20798;-69
2021/01/21 13:27:59;;;;;;;4.27;2.20;;;;;;;;;;5073119;28;20450;-69
2021/01/21 13:30:26;;;;;;;3.53;2.37;;;;;;;;;;5073246;28;20451;-69
2021/01/21 13:32:53;;;;;;;3.83;2.60;;;;;;;;;;5069616;28;20502;-69
2021/01/21 13:35:20;;;;;;;5.83;2.30;;;;;;;;;;5072701;28;20458;-69
2021/01/21 13:37:47;;;;;;;3.47;2.40;;;;;;;;;;5072385;28;20451;-68
2021/01/21 13:40:14;;;;;;;5.53;2.60;;;;;;;;;;5073242;28;20451;-69
2021/01/21 13:42:41;;;;;;;3.30;2.43;;;;;;;;;;5071977;28;20466;-69
2021/01/21 13:45:08;;;;;;;5.60;3.40;;;;;;;;;;5073184;28;20458;-69
2021/01/21 13:47:34;;;;;;;6.60;3.10;;;;;;;;;;5074046;28;20450;-69
2021/01/21 13:50:01;;;;;;;5.97;2.87;;;;;;;;;;5073510;28;20459;-69
2021/01/21 13:52:28;;;;;;;4.93;2.90;;;;;;;;;;5073035;28;20486;-69
2021/01/21 13:54:55;;;;;;;5.43;3.10;;;;;;;;;;5073173;28;21019;-69
2021/01/21 13:57:22;;;;;;;6.37;3.10;;;;;;;;;;5066396;28;20466;-69
2021/01/21 13:59:48;;;;;;;5.90;3.50;;;;;;;;;;5067957;28;20446;-69
2021/01/21 14:02:15;;;;;;;5.07;3.10;;;;;;;;;;5058479;28;20479;-69
2021/01/21 14:04:42;;;;;;;7.93;4.47;;;;;;;;;;5068601;28;20447;-69
2021/01/21 14:07:08;;;;;;;5.60;3.37;;;;;;;;;;5073748;28;20466;-69
2021/01/21 14:09:35;;;;;;;4.90;3.80;;;;;;;;;;5078501;28;20466;-69
2021/01/21 14:12:02;;;;;;;6.00;3.00;;;;;;;;;;5071832;28;21056;-69
2021/01/21 14:14:29;;;;;;;4.20;3.30;;;;;;;;;;5071242;28;20942;-69
2021/01/21 14:16:55;;;;;;;13.60;6.10;;;;;;;;;;5072560;28;20458;-68
2021/01/21 14:19:22;;;;;;;7.33;3.73;;;;;;;;;;5071852;28;20918;-69
2021/01/21 14:21:49;;;;;;;4.03;2.60;;;;;;;;;;5072487;28;20530;-69
2021/01/21 14:24:15;;;;;;;6.10;3.17;;;;;;;;;;5070750;28;20794;-69
2021/01/21 14:26:42;;;;;;;5.67;2.63;;;;;;;;;;5072574;28;20505;-70
2021/01/21 14:29:10;;;;;;;5.53;2.80;;;;;;;;;;5062554;28;20450;-69
2021/01/21 14:31:37;;;;;;;4.23;3.20;;;;;;;;;;5053455;28;20482;-69
2021/01/21 14:34:03;;;;;;;5.30;3.30;;;;;;;;;;5071595;28;20451;-70
2021/01/21 14:36:30;;;;;;;5.80;3.20;;;;;;;;;;5071340;28;20858;-69
2021/01/21 14:38:58;;;;;;;4.43;3.43;;;;;;;;;;5071210;28;20946;-69
2021/01/21 14:41:24;;;;;;;4.83;3.00;;;;;;;;;;5069977;28;20505;-70
2021/01/21 14:43:51;;;;;;;3.97;3.17;;;;;;;;;;5071259;28;20922;-69
2021/01/21 14:46:19;;;;;;;3.83;3.13;;;;;;;;;;5067026;28;20455;-69
2021/01/21 14:48:45;;;;;;;4.13;3.30;;;;;;;;;;5061186;28;20443;-69
2021/01/21 14:51:12;;;;;;;4.53;3.30;;;;;;;;;;5066740;28;20843;-69
2021/01/21 14:53:38;;;;;;;6.30;3.53;;;;;;;;;;5052544;28;20471;-69